Conway, Missouri
Current Conditions -  °F | °C
As of 2:35 AM on Friday 24 Oct 2014 (Local Time) from KH21 Reporting Station
Overcast Overcast  
Wind Chill: 59°   Ceiling: 800
Heat Index: 59°   Visibility: 10mi
Dew Point: 55°   Wind: 8mph
Humidity: 88%   Direction: 240°WSW
Pressure: 30.11"   Gusts: NA
Location:  37.5°N, 92.82°W
Report Text: KH21 240735Z AUTO 24007KT 10SM OVC008 15/13 A3011 RMK AO2
Loading
Personal Weather Stations






























Interactive Weather Map New forecast layout! Learn more

10-Day Weather Forecast

Advertisements
Track Severe Weather on mobile